METAR Data
IDs: Format: Raw Decoded Include TAF

Data at: 1757 UTC 26 Oct 2021

KWVI 261753Z AUTO 00000KT 10SM SCT015 SCT095 16/11 A3024 RMK AO2 SLP240 T01560111 10161 20083 51006

KSNS 261753Z VRB03KT 10SM CLR 14/09 A3024 RMK AO2 SLP247 T01440094 10144 20083 50019

KMRY 261754Z VRB03KT 10SM CLR 17/07 A3024 RMK AO2 SLP251 60000 T01720072 10172 20100 51022

KSJC 261753Z VRB03KT 10SM FEW050 SCT080 BKN100 16/08 A3023 RMK AO2 SLP236 T01610083 10161 20094 51019

KSFO 261656Z 12007KT 10SM BKN023 BKN110 14/11 A3020 RMK AO2 SLP228 T01440106

KHAF 261755Z AUTO 17007KT 4SM HZ BKN013 15/12 A3024 RMK AO2